Terminal Aerodrome Forecast
Issued by NWS

Current Version | Previous Version | Text Only | Print | Product List | Glossary On
Versions: 1 2 3 4 5 6 7 8 9 10 11 12
000
FTUS46 KSTO 291120
TAFSMF
TAF
KSMF 291120Z 2912/3012 17012KT P6SM SKC
     FM300000 18013G21KT P6SM SKC
     FM300600 16013KT P6SM SKC=

USA.gov is the U.S. government's official web portal to all federal, state and local government web resources and services.